sensor_id;sensor_type;location;lat;lon;timestamp;temperature;humidity
43320;DHT22;28914;48.722;9.332;2023-04-24T00:04:12;14.20;73.60
43320;DHT22;28914;48.722;9.332;2023-04-24T00:09:33;14.10;74.30
43320;DHT22;28914;48.722;9.332;2023-04-24T00:14:53;14.00;73.90
43320;DHT22;28914;48.722;9.332;2023-04-24T00:20:12;14.00;74.80
43320;DHT22;28914;48.722;9.332;2023-04-24T00:25:33;13.90;74.30
43320;DHT22;28914;48.722;9.332;2023-04-24T00:30:53;13.90;74.30
43320;DHT22;28914;48.722;9.332;2023-04-24T00:36:12;13.90;74.70
43320;DHT22;28914;48.722;9.332;2023-04-24T00:41:31;13.90;75.00
43320;DHT22;28914;48.722;9.332;2023-04-24T00:46:50;13.90;75.00
43320;DHT22;28914;48.722;9.332;2023-04-24T00:52:13;13.90;75.10
43320;DHT22;28914;48.722;9.332;2023-04-24T00:57:37;13.90;75.30
43320;DHT22;28914;48.722;9.332;2023-04-24T01:02:58;14.00;76.30
43320;DHT22;28914;48.722;9.332;2023-04-24T01:08:18;14.00;76.20
43320;DHT22;28914;48.722;9.332;2023-04-24T01:13:39;14.00;75.90
43320;DHT22;28914;48.722;9.332;2023-04-24T01:18:58;14.00;75.70
43320;DHT22;28914;48.722;9.332;2023-04-24T01:24:18;14.00;75.70
43320;DHT22;28914;48.722;9.332;2023-04-24T01:29:38;14.10;75.60
43320;DHT22;28914;48.722;9.332;2023-04-24T01:34:58;14.10;75.50
43320;DHT22;28914;48.722;9.332;2023-04-24T01:40:17;14.10;75.50
43320;DHT22;28914;48.722;9.332;2023-04-24T01:45:36;14.20;75.60
43320;DHT22;28914;48.722;9.332;2023-04-24T01:50:56;14.20;75.50
43320;DHT22;28914;48.722;9.332;2023-04-24T01:56:16;14.20;76.00
43320;DHT22;28914;48.722;9.332;2023-04-24T02:01:36;14.10;75.30
43320;DHT22;28914;48.722;9.332;2023-04-24T02:06:55;14.10;75.60
43320;DHT22;28914;48.722;9.332;2023-04-24T02:12:15;14.10;75.70
43320;DHT22;28914;48.722;9.332;2023-04-24T02:17:35;14.00;75.80
43320;DHT22;28914;48.722;9.332;2023-04-24T02:22:55;14.00;75.70
43320;DHT22;28914;48.722;9.332;2023-04-24T02:28:14;14.00;75.90
43320;DHT22;28914;48.722;9.332;2023-04-24T02:33:33;14.00;76.00
43320;DHT22;28914;48.722;9.332;2023-04-24T02:38:53;14.00;75.80
43320;DHT22;28914;48.722;9.332;2023-04-24T02:44:12;14.00;75.90
43320;DHT22;28914;48.722;9.332;2023-04-24T02:49:31;13.90;75.70
43320;DHT22;28914;48.722;9.332;2023-04-24T02:54:51;13.90;75.80
43320;DHT22;28914;48.722;9.332;2023-04-24T03:00:10;13.90;76.10
43320;DHT22;28914;48.722;9.332;2023-04-24T03:05:30;13.90;76.20
43320;DHT22;28914;48.722;9.332;2023-04-24T03:10:50;13.90;76.50
43320;DHT22;28914;48.722;9.332;2023-04-24T03:16:09;14.00;76.70
43320;DHT22;28914;48.722;9.332;2023-04-24T03:21:28;14.00;76.70
43320;DHT22;28914;48.722;9.332;2023-04-24T03:26:47;14.10;76.80
43320;DHT22;28914;48.722;9.332;2023-04-24T03:32:07;14.10;77.00
43320;DHT22;28914;48.722;9.332;2023-04-24T03:37:26;14.10;77.50
43320;DHT22;28914;48.722;9.332;2023-04-24T03:42:45;14.10;77.00
43320;DHT22;28914;48.722;9.332;2023-04-24T03:48:05;14.10;76.50
43320;DHT22;28914;48.722;9.332;2023-04-24T03:53:24;14.10;76.50
43320;DHT22;28914;48.722;9.332;2023-04-24T03:58:43;14.10;76.70
43320;DHT22;28914;48.722;9.332;2023-04-24T04:04:03;14.10;76.50
43320;DHT22;28914;48.722;9.332;2023-04-24T04:09:22;14.10;76.30
43320;DHT22;28914;48.722;9.332;2023-04-24T04:14:41;14.00;76.10
43320;DHT22;28914;48.722;9.332;2023-04-24T04:20:00;13.90;76.10
43320;DHT22;28914;48.722;9.332;2023-04-24T04:25:20;13.80;76.30
43320;DHT22;28914;48.722;9.332;2023-04-24T04:30:39;13.70;76.70
43320;DHT22;28914;48.722;9.332;2023-04-24T04:35:59;13.70;77.10
43320;DHT22;28914;48.722;9.332;2023-04-24T04:41:18;13.80;77.30
43320;DHT22;28914;48.722;9.332;2023-04-24T04:46:39;13.80;77.90
43320;DHT22;28914;48.722;9.332;2023-04-24T04:51:58;13.90;77.90
43320;DHT22;28914;48.722;9.332;2023-04-24T04:57:18;13.90;78.50
43320;DHT22;28914;48.722;9.332;2023-04-24T05:02:37;14.00;78.80
43320;DHT22;28914;48.722;9.332;2023-04-24T05:07:56;13.90;77.70
43320;DHT22;28914;48.722;9.332;2023-04-24T05:13:16;13.90;77.20
43320;DHT22;28914;48.722;9.332;2023-04-24T05:18:35;13.90;77.10
43320;DHT22;28914;48.722;9.332;2023-04-24T05:23:54;13.90;77.10
43320;DHT22;28914;48.722;9.332;2023-04-24T05:29:13;13.80;77.00
43320;DHT22;28914;48.722;9.332;2023-04-24T05:34:32;13.80;77.30
43320;DHT22;28914;48.722;9.332;2023-04-24T05:39:51;13.80;77.50
43320;DHT22;28914;48.722;9.332;2023-04-24T05:45:11;13.80;77.90
43320;DHT22;28914;48.722;9.332;2023-04-24T05:50:35;13.80;77.90
43320;DHT22;28914;48.722;9.332;2023-04-24T05:55:54;13.80;78.00
43320;DHT22;28914;48.722;9.332;2023-04-24T06:01:13;13.80;78.20
43320;DHT22;28914;48.722;9.332;2023-04-24T06:06:36;13.90;78.70
43320;DHT22;28914;48.722;9.332;2023-04-24T06:11:55;14.00;79.20
43320;DHT22;28914;48.722;9.332;2023-04-24T06:17:15;14.00;78.80
43320;DHT22;28914;48.722;9.332;2023-04-24T06:22:35;14.10;78.90
43320;DHT22;28914;48.722;9.332;2023-04-24T06:27:55;14.20;79.20
43320;DHT22;28914;48.722;9.332;2023-04-24T06:33:15;14.40;79.30
43320;DHT22;28914;48.722;9.332;2023-04-24T06:38:34;14.50;79.30
43320;DHT22;28914;48.722;9.332;2023-04-24T06:43:54;14.70;78.90
43320;DHT22;28914;48.722;9.332;2023-04-24T06:49:13;14.90;79.00
43320;DHT22;28914;48.722;9.332;2023-04-24T06:54:34;15.10;79.00
43320;DHT22;28914;48.722;9.332;2023-04-24T06:59:54;15.40;78.10
43320;DHT22;28914;48.722;9.332;2023-04-24T07:05:13;15.70;77.10
43320;DHT22;28914;48.722;9.332;2023-04-24T07:10:34;15.90;76.00
43320;DHT22;28914;48.722;9.332;2023-04-24T07:15:54;16.30;76.40
43320;DHT22;28914;48.722;9.332;2023-04-24T07:21:14;16.70;76.50
43320;DHT22;28914;48.722;9.332;2023-04-24T07:26:33;17.10;74.60
43320;DHT22;28914;48.722;9.332;2023-04-24T07:31:52;17.40;74.30
43320;DHT22;28914;48.722;9.332;2023-04-24T07:37:13;17.70;72.10
43320;DHT22;28914;48.722;9.332;2023-04-24T07:42:32;17.60;70.30
43320;DHT22;28914;48.722;9.332;2023-04-24T07:47:53;17.40;69.30
43320;DHT22;28914;48.722;9.332;2023-04-24T07:53:12;17.00;69.40
43320;DHT22;28914;48.722;9.332;2023-04-24T07:58:31;16.80;70.00
43320;DHT22;28914;48.722;9.332;2023-04-24T08:03:51;17.40;75.30
43320;DHT22;28914;48.722;9.332;2023-04-24T08:09:10;19.40;76.60
43320;DHT22;28914;48.722;9.332;2023-04-24T08:14:29;21.80;72.40
43320;DHT22;28914;48.722;9.332;2023-04-24T08:19:48;24.10;67.40
43320;DHT22;28914;48.722;9.332;2023-04-24T08:36:50;29.10;47.50
43320;DHT22;28914;48.722;9.332;2023-04-24T08:42:11;28.50;45.10
43320;DHT22;28914;48.722;9.332;2023-04-24T08:47:33;27.10;44.70
43320;DHT22;28914;48.722;9.332;2023-04-24T08:52:53;25.70;45.70
43320;DHT22;28914;48.722;9.332;2023-04-24T08:58:12;24.80;48.70
43320;DHT22;28914;48.722;9.332;2023-04-24T09:03:33;24.80;49.80
43320;DHT22;28914;48.722;9.332;2023-04-24T09:08:53;25.40;48.70
43320;DHT22;28914;48.722;9.332;2023-04-24T09:14:13;25.70;46.90
43320;DHT22;28914;48.722;9.332;2023-04-24T09:19:33;25.10;44.90
43320;DHT22;28914;48.722;9.332;2023-04-24T09:25:06;24.30;47.20
43320;DHT22;28914;48.722;9.332;2023-04-24T09:30:26;24.10;47.20
43320;DHT22;28914;48.722;9.332;2023-04-24T09:35:50;23.70;45.50
43320;DHT22;28914;48.722;9.332;2023-04-24T09:41:13;23.00;46.00
43320;DHT22;28914;48.722;9.332;2023-04-24T09:46:32;22.20;46.70
43320;DHT22;28914;48.722;9.332;2023-04-24T09:51:52;21.50;46.80
43320;DHT22;28914;48.722;9.332;2023-04-24T09:57:11;21.20;49.10
43320;DHT22;28914;48.722;9.332;2023-04-24T10:02:31;21.30;49.80
43320;DHT22;28914;48.722;9.332;2023-04-24T10:07:51;23.00;51.40
43320;DHT22;28914;48.722;9.332;2023-04-24T10:13:12;25.60;49.50
43320;DHT22;28914;48.722;9.332;2023-04-24T10:18:32;27.80;43.60
43320;DHT22;28914;48.722;9.332;2023-04-24T10:23:52;28.10;39.80
43320;DHT22;28914;48.722;9.332;2023-04-24T10:29:13;27.10;37.90
43320;DHT22;28914;48.722;9.332;2023-04-24T10:34:34;26.70;40.00
43320;DHT22;28914;48.722;9.332;2023-04-24T10:39:55;27.80;40.80
43320;DHT22;28914;48.722;9.332;2023-04-24T10:45:19;29.40;39.70
43320;DHT22;28914;48.722;9.332;2023-04-24T10:50:50;31.00;38.70
43320;DHT22;28914;48.722;9.332;2023-04-24T10:56:09;32.40;35.80
43320;DHT22;28914;48.722;9.332;2023-04-24T11:01:32;32.30;34.10
43320;DHT22;28914;48.722;9.332;2023-04-24T11:06:52;31.20;34.00
43320;DHT22;28914;48.722;9.332;2023-04-24T11:12:11;29.70;33.80
43320;DHT22;28914;48.722;9.332;2023-04-24T11:17:35;27.80;34.30
43320;DHT22;28914;48.722;9.332;2023-04-24T11:23:03;25.90;35.20
43320;DHT22;28914;48.722;9.332;2023-04-24T11:28:24;24.20;36.80
43320;DHT22;28914;48.722;9.332;2023-04-24T11:33:43;22.90;38.50
43320;DHT22;28914;48.722;9.332;2023-04-24T11:39:03;21.70;40.10
43320;DHT22;28914;48.722;9.332;2023-04-24T11:44:22;20.70;41.40
43320;DHT22;28914;48.722;9.332;2023-04-24T11:49:43;20.00;42.70
43320;DHT22;28914;48.722;9.332;2023-04-24T11:55:02;19.50;43.80
43320;DHT22;28914;48.722;9.332;2023-04-24T12:00:30;19.20;44.80
43320;DHT22;28914;48.722;9.332;2023-04-24T12:05:50;19.00;45.40
43320;DHT22;28914;48.722;9.332;2023-04-24T12:11:09;18.70;45.60
43320;DHT22;28914;48.722;9.332;2023-04-24T12:16:28;18.40;46.00
43320;DHT22;28914;48.722;9.332;2023-04-24T12:22:04;18.10;46.70
43320;DHT22;28914;48.722;9.332;2023-04-24T12:27:24;18.10;48.00
43320;DHT22;28914;48.722;9.332;2023-04-24T12:32:48;18.30;48.20
43320;DHT22;28914;48.722;9.332;2023-04-24T12:38:12;18.60;48.30
43320;DHT22;28914;48.722;9.332;2023-04-24T12:43:32;18.70;48.20
43320;DHT22;28914;48.722;9.332;2023-04-24T12:48:51;18.60;48.30
43320;DHT22;28914;48.722;9.332;2023-04-24T12:54:11;18.50;48.30
43320;DHT22;28914;48.722;9.332;2023-04-24T12:59:30;18.50;48.50
43320;DHT22;28914;48.722;9.332;2023-04-24T13:04:50;18.50;49.30
43320;DHT22;28914;48.722;9.332;2023-04-24T13:10:09;18.60;48.20
43320;DHT22;28914;48.722;9.332;2023-04-24T13:15:29;18.50;47.90
43320;DHT22;28914;48.722;9.332;2023-04-24T13:20:48;18.40;48.00
43320;DHT22;28914;48.722;9.332;2023-04-24T13:26:07;18.20;48.20
43320;DHT22;28914;48.722;9.332;2023-04-24T13:31:27;18.00;48.70
43320;DHT22;28914;48.722;9.332;2023-04-24T13:36:48;17.90;50.30
43320;DHT22;28914;48.722;9.332;2023-04-24T13:42:08;17.80;51.70
43320;DHT22;28914;48.722;9.332;2023-04-24T13:47:27;17.70;52.10
43320;DHT22;28914;48.722;9.332;2023-04-24T13:52:47;17.80;52.10
43320;DHT22;28914;48.722;9.332;2023-04-24T13:58:06;18.00;51.70
43320;DHT22;28914;48.722;9.332;2023-04-24T14:03:25;18.00;50.80
43320;DHT22;28914;48.722;9.332;2023-04-24T14:08:44;17.90;50.00
43320;DHT22;28914;48.722;9.332;2023-04-24T14:14:04;17.60;50.10
43320;DHT22;28914;48.722;9.332;2023-04-24T14:19:24;17.30;51.60
43320;DHT22;28914;48.722;9.332;2023-04-24T14:24:43;17.10;52.30
43320;DHT22;28914;48.722;9.332;2023-04-24T14:30:03;17.10;52.80
43320;DHT22;28914;48.722;9.332;2023-04-24T14:35:23;17.30;53.50
43320;DHT22;28914;48.722;9.332;2023-04-24T14:40:42;17.40;53.30
43320;DHT22;28914;48.722;9.332;2023-04-24T14:46:02;17.50;53.30
43320;DHT22;28914;48.722;9.332;2023-04-24T14:51:21;17.50;52.80
43320;DHT22;28914;48.722;9.332;2023-04-24T14:56:40;17.20;55.00
43320;DHT22;28914;48.722;9.332;2023-04-24T15:01:59;17.00;54.50
43320;DHT22;28914;48.722;9.332;2023-04-24T15:07:18;16.80;55.40
43320;DHT22;28914;48.722;9.332;2023-04-24T15:12:38;16.80;55.70
43320;DHT22;28914;48.722;9.332;2023-04-24T15:17:57;16.90;55.80
43320;DHT22;28914;48.722;9.332;2023-04-24T15:23:17;17.00;56.00
43320;DHT22;28914;48.722;9.332;2023-04-24T15:28:36;17.20;55.40
43320;DHT22;28914;48.722;9.332;2023-04-24T15:33:55;17.20;54.80
43320;DHT22;28914;48.722;9.332;2023-04-24T15:39:14;17.10;54.40
43320;DHT22;28914;48.722;9.332;2023-04-24T15:44:33;17.00;54.10
43320;DHT22;28914;48.722;9.332;2023-04-24T15:49:52;16.90;54.30
43320;DHT22;28914;48.722;9.332;2023-04-24T15:55:12;16.90;54.10
43320;DHT22;28914;48.722;9.332;2023-04-24T16:00:32;16.80;54.10
43320;DHT22;28914;48.722;9.332;2023-04-24T16:05:53;16.70;54.70
43320;DHT22;28914;48.722;9.332;2023-04-24T16:11:12;16.60;55.30
43320;DHT22;28914;48.722;9.332;2023-04-24T16:16:31;16.40;55.50
43320;DHT22;28914;48.722;9.332;2023-04-24T16:21:50;16.40;55.50
43320;DHT22;28914;48.722;9.332;2023-04-24T16:27:11;16.40;55.50
43320;DHT22;28914;48.722;9.332;2023-04-24T16:32:31;16.40;55.50
43320;DHT22;28914;48.722;9.332;2023-04-24T16:37:51;16.40;55.60
43320;DHT22;28914;48.722;9.332;2023-04-24T16:43:10;16.50;55.40
43320;DHT22;28914;48.722;9.332;2023-04-24T16:48:31;16.40;55.10
43320;DHT22;28914;48.722;9.332;2023-04-24T16:53:50;16.40;55.00
43320;DHT22;28914;48.722;9.332;2023-04-24T16:59:09;16.40;55.00
43320;DHT22;28914;48.722;9.332;2023-04-24T17:04:29;16.40;55.10
43320;DHT22;28914;48.722;9.332;2023-04-24T17:09:48;16.40;55.30
43320;DHT22;28914;48.722;9.332;2023-04-24T17:15:07;16.40;55.30
43320;DHT22;28914;48.722;9.332;2023-04-24T17:20:27;16.40;55.20
43320;DHT22;28914;48.722;9.332;2023-04-24T17:25:47;16.40;55.40
43320;DHT22;28914;48.722;9.332;2023-04-24T17:31:06;16.40;55.80
43320;DHT22;28914;48.722;9.332;2023-04-24T17:36:26;16.40;55.90
43320;DHT22;28914;48.722;9.332;2023-04-24T17:41:45;16.40;55.40
43320;DHT22;28914;48.722;9.332;2023-04-24T17:47:04;16.40;54.60
43320;DHT22;28914;48.722;9.332;2023-04-24T17:52:24;16.20;55.10
43320;DHT22;28914;48.722;9.332;2023-04-24T17:57:43;16.10;54.40
43320;DHT22;28914;48.722;9.332;2023-04-24T18:03:03;15.90;54.50
43320;DHT22;28914;48.722;9.332;2023-04-24T18:08:22;15.70;54.50
43320;DHT22;28914;48.722;9.332;2023-04-24T18:13:41;15.50;55.00
43320;DHT22;28914;48.722;9.332;2023-04-24T18:19:00;15.30;55.50
43320;DHT22;28914;48.722;9.332;2023-04-24T18:24:21;15.20;56.00
43320;DHT22;28914;48.722;9.332;2023-04-24T18:29:40;15.00;56.20
43320;DHT22;28914;48.722;9.332;2023-04-24T18:35:00;14.80;56.70
43320;DHT22;28914;48.722;9.332;2023-04-24T18:40:19;14.80;57.30
43320;DHT22;28914;48.722;9.332;2023-04-24T18:45:38;14.60;57.60
43320;DHT22;28914;48.722;9.332;2023-04-24T18:50:58;14.50;57.90
43320;DHT22;28914;48.722;9.332;2023-04-24T18:56:18;14.40;58.30
43320;DHT22;28914;48.722;9.332;2023-04-24T19:01:37;14.30;58.40
43320;DHT22;28914;48.722;9.332;2023-04-24T19:06:57;14.10;58.30
43320;DHT22;28914;48.722;9.332;2023-04-24T19:12:16;14.00;58.80
43320;DHT22;28914;48.722;9.332;2023-04-24T19:17:36;13.70;58.90
43320;DHT22;28914;48.722;9.332;2023-04-24T19:22:55;13.60;59.30
43320;DHT22;28914;48.722;9.332;2023-04-24T19:28:15;13.50;60.20
43320;DHT22;28914;48.722;9.332;2023-04-24T19:33:34;13.50;59.90
43320;DHT22;28914;48.722;9.332;2023-04-24T19:38:54;13.40;59.50
43320;DHT22;28914;48.722;9.332;2023-04-24T19:44:13;13.40;60.00
43320;DHT22;28914;48.722;9.332;2023-04-24T19:49:33;13.30;60.30
43320;DHT22;28914;48.722;9.332;2023-04-24T19:54:53;13.20;60.40
43320;DHT22;28914;48.722;9.332;2023-04-24T20:00:12;13.10;60.60
43320;DHT22;28914;48.722;9.332;2023-04-24T20:05:32;13.00;60.60
43320;DHT22;28914;48.722;9.332;2023-04-24T20:10:51;12.90;60.80
43320;DHT22;28914;48.722;9.332;2023-04-24T20:16:12;12.80;61.00
43320;DHT22;28914;48.722;9.332;2023-04-24T20:21:31;12.70;61.30
43320;DHT22;28914;48.722;9.332;2023-04-24T20:26:50;12.70;61.80
43320;DHT22;28914;48.722;9.332;2023-04-24T20:32:09;12.60;62.00
43320;DHT22;28914;48.722;9.332;2023-04-24T20:37:29;12.50;63.10
43320;DHT22;28914;48.722;9.332;2023-04-24T20:42:48;12.50;62.80
43320;DHT22;28914;48.722;9.332;2023-04-24T20:48:07;12.50;63.10
43320;DHT22;28914;48.722;9.332;2023-04-24T20:53:27;12.50;63.30
43320;DHT22;28914;48.722;9.332;2023-04-24T20:58:47;12.50;63.70
43320;DHT22;28914;48.722;9.332;2023-04-24T21:04:06;12.50;64.00
43320;DHT22;28914;48.722;9.332;2023-04-24T21:09:25;12.40;64.10
43320;DHT22;28914;48.722;9.332;2023-04-24T21:14:44;12.40;64.40
43320;DHT22;28914;48.722;9.332;2023-04-24T21:20:04;12.30;64.80
43320;DHT22;28914;48.722;9.332;2023-04-24T21:25:24;12.20;65.20
43320;DHT22;28914;48.722;9.332;2023-04-24T21:30:43;12.00;64.80
43320;DHT22;28914;48.722;9.332;2023-04-24T21:36:03;12.00;65.10
43320;DHT22;28914;48.722;9.332;2023-04-24T21:41:22;11.80;65.00
43320;DHT22;28914;48.722;9.332;2023-04-24T21:46:42;11.70;65.10
43320;DHT22;28914;48.722;9.332;2023-04-24T21:52:01;11.60;65.60
43320;DHT22;28914;48.722;9.332;2023-04-24T21:57:21;11.50;65.80
43320;DHT22;28914;48.722;9.332;2023-04-24T22:02:40;11.50;67.10
43320;DHT22;28914;48.722;9.332;2023-04-24T22:08:00;11.40;67.10
43320;DHT22;28914;48.722;9.332;2023-04-24T22:13:20;11.50;67.20
43320;DHT22;28914;48.722;9.332;2023-04-24T22:18:39;11.50;67.30
43320;DHT22;28914;48.722;9.332;2023-04-24T22:23:58;11.60;67.60
43320;DHT22;28914;48.722;9.332;2023-04-24T22:29:17;11.60;67.80
43320;DHT22;28914;48.722;9.332;2023-04-24T22:34:36;11.70;68.60
43320;DHT22;28914;48.722;9.332;2023-04-24T22:39:56;11.80;68.70
43320;DHT22;28914;48.722;9.332;2023-04-24T22:45:18;11.80;68.50
43320;DHT22;28914;48.722;9.332;2023-04-24T22:50:37;11.90;68.50
43320;DHT22;28914;48.722;9.332;2023-04-24T22:55:56;11.90;68.40
43320;DHT22;28914;48.722;9.332;2023-04-24T23:01:15;11.90;68.20
43320;DHT22;28914;48.722;9.332;2023-04-24T23:06:35;11.90;68.30
43320;DHT22;28914;48.722;9.332;2023-04-24T23:11:54;12.00;68.40
43320;DHT22;28914;48.722;9.332;2023-04-24T23:17:16;11.90;68.20
43320;DHT22;28914;48.722;9.332;2023-04-24T23:22:35;11.90;68.50
43320;DHT22;28914;48.722;9.332;2023-04-24T23:27:54;12.00;68.90
43320;DHT22;28914;48.722;9.332;2023-04-24T23:33:14;12.00;68.70
43320;DHT22;28914;48.722;9.332;2023-04-24T23:38:33;12.00;68.90
43320;DHT22;28914;48.722;9.332;2023-04-24T23:43:53;12.00;68.90
43320;DHT22;28914;48.722;9.332;2023-04-24T23:49:11;12.00;69.00
43320;DHT22;28914;48.722;9.332;2023-04-24T23:54:31;12.10;69.20
43320;DHT22;28914;48.722;9.332;2023-04-24T23:59:50;12.10;69.30
